Time;durP1;ratioP1;P1;durP2;ratioP2;P2;SDS_P1;SDS_P2;PMS_P1;PMS_P2;Temp;Humidity;BMP_temperature;BMP_pressure;BME280_temperature;BME280_humidity;BME280_pressure;Samples;Min_cycle;Max_cycle;Signal;HPM_P1;HPM_P2
2021/08/05 00:00:09;;;;;;;3.70;2.93;;;18.70;99.90;;;18.80;92.01;97754.22;5055264;28;20638;-63
2021/08/05 00:02:38;;;;;;;3.30;2.80;;;18.80;99.90;;;18.80;91.75;97748.91;5063608;28;20687;-63
2021/08/05 00:05:08;;;;;;;3.20;2.90;;;18.80;99.90;;;18.81;91.22;97742.66;5055644;28;20662;-63
2021/08/05 00:07:36;;;;;;;3.87;3.20;;;18.80;99.90;;;18.81;91.25;97736.53;5058259;28;20754;-64
2021/08/05 00:10:06;;;;;;;4.40;3.27;;;18.70;99.90;;;18.80;91.12;97730.41;5054737;28;20646;-63
2021/08/05 00:12:36;;;;;;;4.07;3.13;;;18.80;99.90;;;18.79;91.67;97723.47;5060926;28;20625;-63
2021/08/05 00:15:05;;;;;;;4.53;3.10;;;18.70;99.90;;;18.77;91.59;97724.66;5058815;28;20714;-63
2021/08/05 00:17:34;;;;;;;3.73;3.37;;;18.80;99.90;;;18.74;91.69;97717.03;5055216;28;20644;-64
2021/08/05 00:20:05;;;;;;;3.80;3.17;;;18.70;99.90;;;18.71;92.54;97723.47;5060550;28;20640;-63
2021/08/05 00:22:34;;;;;;;5.67;3.30;;;18.70;99.90;;;18.70;92.63;97721.00;5058082;28;20638;-64
2021/08/05 00:25:03;;;;;;;4.20;3.07;;;18.70;99.90;;;18.68;93.07;97717.69;5058183;28;20664;-63
2021/08/05 00:27:31;;;;;;;3.37;3.07;;;18.70;99.90;;;18.66;92.77;97719.69;5062067;28;20726;-63
2021/08/05 00:30:13;;;;;;;6.43;3.30;;;18.70;99.90;;;18.62;93.44;97707.78;5059217;28;20630;-63
2021/08/05 00:32:42;;;;;;;4.57;3.80;;;18.70;99.90;;;18.61;93.77;97716.69;5063301;28;21524;-63
2021/08/05 00:35:11;;;;;;;4.20;3.57;;;18.60;99.90;;;18.57;94.20;97708.25;5053832;28;20737;-63
2021/08/05 00:37:40;;;;;;;5.00;3.40;;;18.60;99.90;;;18.56;93.88;97714.53;5038620;28;21098;-63
2021/08/05 00:40:10;;;;;;;4.67;3.30;;;18.60;99.90;;;18.55;93.79;97712.91;5062872;28;20774;-63
2021/08/05 00:42:39;;;;;;;4.00;3.33;;;18.60;99.90;;;18.53;93.35;97717.50;5057197;28;20629;-63
2021/08/05 00:45:11;;;;;;;5.40;3.47;;;18.50;99.90;;;18.49;93.57;97720.63;5045832;28;21260;-64
2021/08/05 00:47:39;;;;;;;5.53;3.70;;;18.60;99.90;;;18.47;93.64;97725.25;5047434;28;20626;-63
2021/08/05 00:50:10;;;;;;;3.23;2.80;;;18.50;99.90;;;18.44;93.68;97718.47;5054398;28;20640;-63
2021/08/05 00:52:40;;;;;;;5.70;3.50;;;18.50;99.90;;;18.44;94.01;97726.41;5061735;28;20671;-63
2021/08/05 00:55:09;;;;;;;4.87;3.40;;;18.50;99.90;;;18.46;94.03;97719.16;5057130;28;20641;-63
2021/08/05 00:57:38;;;;;;;4.73;3.67;;;18.50;99.90;;;18.45;94.07;97712.22;5055738;28;20728;-63
2021/08/05 01:00:09;;;;;;;4.90;2.93;;;18.50;99.90;;;18.46;93.89;97713.03;5061362;28;20996;-64
2021/08/05 01:02:45;;;;;;;4.27;3.20;;;18.50;99.90;;;18.44;94.32;97694.69;5067970;28;20645;-63
2021/08/05 01:05:15;;;;;;;3.90;3.37;;;18.50;99.90;;;18.45;94.02;97709.56;5064078;28;20660;-63
2021/08/05 01:07:54;;;;;;;4.97;3.10;;;18.50;99.90;;;18.44;93.97;97715.81;5066322;28;20669;-63
2021/08/05 01:10:29;;;;;;;3.60;2.90;;;18.50;99.90;;;18.41;93.73;97717.16;5048394;28;21426;-63
2021/08/05 01:13:07;;;;;;;4.00;3.60;;;18.50;99.90;;;18.36;94.40;97720.28;5068357;28;20629;-63
2021/08/05 01:15:35;;;;;;;5.00;3.07;;;18.40;99.90;;;18.36;93.84;97727.34;5061001;28;20694;-63
2021/08/05 01:18:09;;;;;;;5.27;3.20;;;18.40;99.90;;;18.37;93.83;97718.47;5057964;28;20638;-63
2021/08/05 01:20:42;;;;;;;4.00;3.60;;;18.40;99.90;;;18.34;94.94;97724.88;5065243;28;20710;-63
2021/08/05 01:23:29;;;;;;;5.17;3.63;;;18.40;99.90;;;18.33;94.71;97717.13;5064976;28;20661;-63
2021/08/05 01:26:06;;;;;;;5.40;3.43;;;18.40;99.90;;;18.30;93.89;97717.47;5083779;28;21025;-63
2021/08/05 01:28:39;;;;;;;4.03;3.40;;;18.30;99.90;;;18.30;94.07;97720.13;5074624;28;20641;-63
2021/08/05 01:31:08;;;;;;;4.10;3.43;;;18.30;99.90;;;18.26;94.08;97716.94;5048529;28;20773;-63
2021/08/05 01:33:39;;;;;;;3.73;3.03;;;18.20;99.90;;;18.24;94.13;97718.94;5067598;28;20632;-63
2021/08/05 01:36:08;;;;;;;3.83;2.97;;;18.30;99.90;;;18.21;94.22;97713.16;5070631;28;21232;-63
2021/08/05 01:38:39;;;;;;;5.10;3.30;;;18.20;99.90;;;18.16;93.79;97710.16;5059678;28;21007;-63
2021/08/05 01:41:10;;;;;;;5.33;3.50;;;18.20;99.90;;;18.12;94.12;97706.16;5068222;28;20665;-63
2021/08/05 01:43:41;;;;;;;4.97;3.43;;;18.10;99.90;;;18.11;94.91;97709.78;5069332;28;21103;-63
2021/08/05 01:46:12;;;;;;;3.70;3.40;;;18.10;99.90;;;18.09;94.51;97698.56;5060870;28;20674;-63
2021/08/05 01:48:42;;;;;;;4.33;3.13;;;18.10;99.90;;;18.08;94.80;97691.63;5046186;28;20633;-63
2021/08/05 01:51:11;;;;;;;4.07;3.63;;;18.10;99.90;;;18.08;94.87;97694.25;5066888;28;20692;-63
2021/08/05 01:53:40;;;;;;;4.57;3.10;;;18.10;99.90;;;18.06;94.65;97696.25;5052342;28;20638;-63
2021/08/05 01:56:09;;;;;;;3.50;3.20;;;18.10;99.90;;;18.04;94.51;97692.91;5064049;28;20675;-63
2021/08/05 01:58:38;;;;;;;5.00;3.40;;;18.10;99.90;;;18.04;94.64;97695.56;5071178;28;20636;-63
2021/08/05 02:01:08;;;;;;;6.03;3.20;;;18.00;99.90;;;18.02;94.74;97702.81;5065299;28;20705;-64
2021/08/05 02:03:38;;;;;;;4.40;4.00;;;18.10;99.90;;;18.01;94.67;97696.72;5062763;28;20648;-63
2021/08/05 02:06:14;;;;;;;6.90;3.87;;;18.10;99.90;;;18.00;94.85;97691.59;5056937;28;20668;-63
2021/08/05 02:08:55;;;;;;;3.53;3.23;;;18.10;99.90;;;18.03;95.01;97702.66;5065196;28;20628;-63
2021/08/05 02:11:25;;;;;;;4.97;3.90;;;18.10;99.90;;;18.04;94.72;97698.19;5065938;28;20975;-63
2021/08/05 02:13:56;;;;;;;4.03;3.67;;;18.10;99.90;;;18.04;95.12;97695.56;5062547;28;20627;-63
2021/08/05 02:16:28;;;;;;;4.23;3.60;;;18.10;99.90;;;18.06;95.78;97693.59;5061990;28;20739;-63
2021/08/05 02:18:59;;;;;;;3.13;2.80;;;18.10;99.90;;;18.07;94.69;97695.22;5059422;28;20636;-63
2021/08/05 02:21:29;;;;;;;3.90;3.37;;;18.10;99.90;;;18.04;94.80;97700.81;5056054;28;20716;-63
2021/08/05 02:23:59;;;;;;;4.03;3.63;;;18.00;99.90;;;18.01;94.52;97690.59;5060672;28;20777;-63
2021/08/05 02:26:30;;;;;;;6.57;3.80;;;18.00;99.90;;;17.94;94.23;97697.50;5058582;28;20664;-63
2021/08/05 02:28:59;;;;;;;5.47;3.40;;;18.00;99.90;;;17.89;94.55;97686.63;5058370;28;20720;-63
2021/08/05 02:31:29;;;;;;;7.10;3.77;;;17.90;99.90;;;17.88;94.75;97689.41;5063418;28;21034;-63
2021/08/05 02:33:59;;;;;;;3.47;3.07;;;17.90;99.90;;;17.85;94.49;97685.28;5066972;28;20624;-63
2021/08/05 02:36:28;;;;;;;4.03;3.53;;;17.90;99.90;;;17.86;94.29;97691.38;5077058;28;20652;-63
2021/08/05 02:38:56;;;;;;;4.10;3.60;;;17.90;99.90;;;17.87;95.07;97682.47;5068634;28;20684;-63
2021/08/05 02:41:26;;;;;;;5.80;3.73;;;17.90;99.90;;;17.88;94.66;97689.41;5061483;28;20726;-63
2021/08/05 02:43:56;;;;;;;4.63;3.70;;;17.90;99.90;;;17.86;95.14;97680.81;5068264;28;20668;-63
2021/08/05 02:46:25;;;;;;;4.90;3.70;;;17.90;99.90;;;17.85;95.00;97674.72;5063355;28;20764;-63
2021/08/05 02:48:56;;;;;;;6.63;3.67;;;17.90;99.90;;;17.85;94.58;97674.72;5068601;28;20641;-63
2021/08/05 02:51:26;;;;;;;4.43;3.43;;;17.90;99.90;;;17.84;94.37;97673.06;5080641;28;20647;-63
2021/08/05 02:53:56;;;;;;;5.30;4.37;;;17.90;99.90;;;17.83;94.50;97674.06;5063251;28;20731;-63
2021/08/05 02:56:25;;;;;;;5.03;4.30;;;17.90;99.90;;;17.81;95.02;97678.66;5062743;28;20631;-63
2021/08/05 02:58:55;;;;;;;4.93;3.87;;;17.80;99.90;;;17.81;94.80;97673.38;5066596;28;21044;-63
2021/08/05 03:01:24;;;;;;;4.23;3.60;;;17.90;99.90;;;17.82;94.75;97671.56;5046716;28;20721;-64
2021/08/05 03:03:55;;;;;;;4.10;3.70;;;17.90;99.90;;;17.81;94.18;97670.72;5061045;28;21045;-63
2021/08/05 03:06:27;;;;;;;5.77;4.27;;;17.90;99.90;;;17.84;94.39;97669.59;5067767;28;20672;-63
2021/08/05 03:08:56;;;;;;;3.87;3.20;;;17.90;99.90;;;17.82;94.84;97666.31;5065286;28;20656;-63
2021/08/05 03:11:24;;;;;;;4.53;3.60;;;17.90;99.90;;;17.79;93.94;97669.25;5061034;28;20635;-63
2021/08/05 03:13:53;;;;;;;4.73;3.77;;;17.90;99.90;;;17.72;94.21;97668.22;5063532;28;21162;-63
2021/08/05 03:16:21;;;;;;;4.77;3.43;;;17.80;99.90;;;17.67;94.40;97671.34;5062675;28;20621;-63
2021/08/05 03:18:51;;;;;;;4.03;3.53;;;17.70;99.90;;;17.65;93.89;97669.84;5062086;28;20625;-63
2021/08/05 03:21:21;;;;;;;4.37;3.80;;;17.70;99.90;;;17.62;93.70;97664.88;5061483;28;20625;-63
2021/08/05 03:23:50;;;;;;;5.40;4.10;;;17.70;99.90;;;17.55;94.42;97658.59;5062174;28;20635;-63
2021/08/05 03:26:18;;;;;;;6.13;3.73;;;17.60;99.90;;;17.53;94.18;97664.03;5065934;28;20657;-63
2021/08/05 03:28:47;;;;;;;5.13;3.90;;;17.50;99.90;;;17.46;93.56;97658.72;5064479;28;20674;-63
2021/08/05 03:31:15;;;;;;;4.47;4.03;;;17.50;99.90;;;17.45;94.96;97665.78;5057135;28;20620;-63
2021/08/05 03:33:44;;;;;;;4.33;3.77;;;17.50;99.90;;;17.44;94.51;97658.88;5064003;28;20628;-63
2021/08/05 03:36:13;;;;;;;4.57;3.90;;;17.50;99.90;;;17.44;94.37;97658.03;5055079;28;20630;-63
2021/08/05 03:38:43;;;;;;;4.33;3.60;;;17.50;99.90;;;17.42;95.10;97657.38;5063378;28;20702;-63
2021/08/05 03:41:11;;;;;;;5.13;3.60;;;17.50;99.90;;;17.40;94.63;97660.16;5063554;28;20632;-63
2021/08/05 03:43:40;;;;;;;4.10;3.70;;;17.50;99.90;;;17.40;95.15;97667.25;5062615;28;20640;-63
2021/08/05 03:46:09;;;;;;;3.80;3.40;;;17.40;99.90;;;17.39;94.27;97665.59;5063475;28;20643;-63
2021/08/05 03:48:38;;;;;;;4.90;4.03;;;17.40;99.90;;;17.36;94.25;97672.00;5059867;28;20671;-63
2021/08/05 03:51:07;;;;;;;4.30;3.90;;;17.40;99.90;;;17.33;95.63;97672.31;5060983;28;22228;-63
2021/08/05 03:53:36;;;;;;;5.63;3.90;;;17.40;99.90;;;17.34;94.34;97673.16;5060798;28;20631;-63
2021/08/05 03:56:06;;;;;;;4.63;4.13;;;17.40;99.90;;;17.34;94.39;97679.25;5068382;28;20736;-64
2021/08/05 03:58:34;;;;;;;7.83;4.30;;;17.40;99.90;;;17.33;94.29;97671.50;5058151;28;20644;-64
2021/08/05 04:01:03;;;;;;;6.33;3.97;;;17.40;99.90;;;17.31;94.33;97674.28;5059626;28;21245;-64
2021/08/05 04:03:32;;;;;;;4.20;3.80;;;17.40;99.90;;;17.28;95.51;97664.06;5060922;28;21010;-63
2021/08/05 04:06:01;;;;;;;4.00;3.60;;;17.40;99.90;;;17.28;94.83;97669.31;5061862;28;21070;-63
2021/08/05 04:08:29;;;;;;;4.40;3.80;;;17.30;99.90;;;17.27;93.73;97672.94;5060534;28;20656;-63
2021/08/05 04:10:58;;;;;;;4.67;3.83;;;17.30;99.90;;;17.25;94.05;97674.91;5060350;28;20628;-63
2021/08/05 04:13:29;;;;;;;4.23;3.83;;;17.30;99.90;;;17.26;94.53;97673.09;5060977;28;20678;-63
2021/08/05 04:15:58;;;;;;;5.70;4.17;;;17.30;99.90;;;17.24;95.07;97675.88;5057773;28;20720;-63
2021/08/05 04:18:27;;;;;;;4.50;3.70;;;17.30;99.90;;;17.24;94.30;97670.59;5059134;28;20691;-63
2021/08/05 04:20:56;;;;;;;4.33;3.73;;;17.30;99.90;;;17.22;94.79;97672.59;5059491;28;20636;-64
2021/08/05 04:23:24;;;;;;;4.17;3.77;;;17.30;99.90;;;17.20;94.81;97671.03;5060170;28;20632;-63
2021/08/05 04:25:53;;;;;;;4.23;3.73;;;17.30;99.90;;;17.17;93.27;97672.19;5057414;28;21055;-63
2021/08/05 04:28:23;;;;;;;5.00;3.67;;;17.20;99.90;;;17.14;93.35;97669.88;5063842;28;21204;-63
2021/08/05 04:30:53;;;;;;;5.37;3.80;;;17.20;99.90;;;17.14;93.72;97676.97;5057753;28;20624;-63
2021/08/05 04:33:22;;;;;;;5.67;3.80;;;17.20;99.90;;;17.12;95.10;97678.91;5064372;28;20623;-63
2021/08/05 04:35:51;;;;;;;3.97;3.53;;;17.20;99.90;;;17.10;93.29;97670.34;5059068;28;20636;-63
2021/08/05 04:38:19;;;;;;;4.30;3.90;;;17.20;99.90;;;17.09;93.23;97681.84;5067544;28;20620;-63
2021/08/05 04:40:48;;;;;;;5.20;4.10;;;17.20;99.90;;;17.09;93.21;97679.22;5065004;28;21010;-63
2021/08/05 04:43:16;;;;;;;3.97;3.57;;;17.20;99.90;;;17.11;93.70;97674.63;5063979;28;20723;-63
2021/08/05 04:45:45;;;;;;;5.83;4.60;;;17.20;99.90;;;17.08;93.50;97677.59;5063459;28;20820;-63
2021/08/05 04:48:15;;;;;;;5.43;3.80;;;17.10;99.90;;;17.10;94.42;97679.06;5064364;28;20655;-63
2021/08/05 04:50:44;;;;;;;4.87;3.73;;;17.10;99.90;;;17.09;93.57;97682.69;5062216;28;20642;-63
2021/08/05 04:53:16;;;;;;;7.17;4.33;;;17.10;99.90;;;17.08;93.01;97677.59;5065396;28;21000;-63
2021/08/05 04:55:45;;;;;;;4.27;3.63;;;17.10;99.90;;;17.10;94.19;97683.50;5065404;28;20996;-63
2021/08/05 04:58:14;;;;;;;6.87;4.70;;;17.20;99.90;;;17.15;93.93;97683.88;5063008;28;20695;-63
2021/08/05 05:00:44;;;;;;;6.33;4.10;;;17.20;99.90;;;17.21;93.82;97678.00;5059558;28;20632;-63
2021/08/05 05:03:14;;;;;;;6.40;4.43;;;17.20;99.90;;;17.28;93.62;97674.59;5067308;28;20709;-63
2021/08/05 05:05:43;;;;;;;5.60;4.27;;;17.20;99.90;;;17.31;93.32;97679.56;5062668;28;20730;-63
2021/08/05 05:08:18;;;;;;;5.13;4.43;;;17.30;99.90;;;17.36;94.48;97687.81;5057571;28;20786;-63
2021/08/05 05:10:47;;;;;;;6.43;5.40;;;17.30;99.90;;;17.40;93.56;97683.09;5060822;28;20638;-63
2021/08/05 05:13:18;;;;;;;4.30;3.90;;;17.40;99.90;;;17.44;93.61;97684.41;5062929;28;20730;-63
2021/08/05 05:15:47;;;;;;;4.30;3.90;;;17.40;99.90;;;17.49;93.50;97686.41;5060495;28;21181;-64
2021/08/05 05:18:22;;;;;;;5.60;4.00;;;17.50;99.90;;;17.53;94.02;97677.22;5058738;28;21453;-63
2021/08/05 05:20:51;;;;;;;8.57;4.40;;;17.50;99.90;;;17.59;93.48;97679.22;5061681;28;21182;-63
2021/08/05 05:23:20;;;;;;;6.53;4.73;;;17.60;99.90;;;17.69;94.04;97679.91;5064663;28;20635;-63
2021/08/05 05:25:49;;;;;;;5.87;4.83;;;17.60;99.90;;;17.83;93.49;97678.50;5061300;28;20630;-63
2021/08/05 05:28:18;;;;;;;5.50;4.50;;;17.70;99.90;;;17.93;92.45;97674.72;5061365;28;21077;-63
2021/08/05 05:30:47;;;;;;;7.03;5.00;;;17.80;99.90;;;18.05;92.65;97676.09;5060202;28;21250;-63
2021/08/05 05:33:17;;;;;;;5.33;4.27;;;17.90;99.90;;;18.20;92.59;97682.44;5061368;28;20619;-63
2021/08/05 05:35:46;;;;;;;6.90;5.10;;;18.00;99.90;;;18.31;91.74;97682.97;5067318;28;21318;-63
2021/08/05 05:38:15;;;;;;;5.47;4.57;;;18.10;99.90;;;18.42;91.61;97677.38;5062538;28;20677;-63
2021/08/05 05:40:44;;;;;;;5.17;4.53;;;18.20;99.90;;;18.54;90.54;97679.53;5062794;28;20633;-63
2021/08/05 05:43:13;;;;;;;6.70;4.70;;;18.40;99.90;;;18.64;90.06;97674.09;5067025;28;21229;-63
2021/08/05 05:45:43;;;;;;;6.23;5.07;;;18.50;99.90;;;18.67;90.52;97673.75;5061547;28;20660;-63
2021/08/05 05:48:12;;;;;;;5.30;4.60;;;18.50;99.90;;;18.78;90.06;97668.13;5068449;28;20669;-63
2021/08/05 05:50:43;;;;;;;6.07;4.50;;;18.60;99.90;;;18.84;90.37;97670.97;5061512;28;20734;-63
2021/08/05 05:53:12;;;;;;;5.77;5.17;;;18.70;99.90;;;18.96;89.27;97667.00;5063385;28;20621;-63
2021/08/05 05:55:41;;;;;;;5.70;5.20;;;18.80;99.90;;;19.20;90.08;97666.97;5061557;28;20629;-63
2021/08/05 05:58:09;;;;;;;4.97;4.47;;;19.00;99.90;;;19.37;90.13;97671.25;5069021;28;20625;-63
2021/08/05 06:00:38;;;;;;;4.80;4.30;;;19.20;99.90;;;19.42;88.86;97670.59;5069622;28;20691;-63
2021/08/05 06:03:07;;;;;;;4.77;3.97;;;19.30;99.90;;;19.42;87.99;97664.44;5066852;28;20647;-63
2021/08/05 06:05:36;;;;;;;7.50;4.43;;;19.30;99.90;;;19.39;86.77;97665.63;5066764;28;20716;-63
2021/08/05 06:08:07;;;;;;;5.70;4.93;;;19.20;99.90;;;19.37;88.23;97658.03;5072843;28;20774;-63
2021/08/05 06:10:35;;;;;;;5.60;4.50;;;19.20;99.90;;;19.43;88.36;97660.81;5066504;28;20674;-69
2021/08/05 06:13:04;;;;;;;6.40;5.00;;;19.30;99.90;;;19.61;88.11;97664.91;5069344;28;20634;-63
2021/08/05 06:15:33;;;;;;;5.30;4.50;;;19.40;99.90;;;19.86;86.95;97669.16;5068101;28;21180;-63
2021/08/05 06:18:01;;;;;;;9.90;6.53;;;19.60;99.90;;;19.88;87.56;97670.59;5064328;28;21257;-63
2021/08/05 06:20:30;;;;;;;6.43;4.47;;;19.70;99.90;;;19.94;86.38;97671.75;5063029;28;20661;-63
2021/08/05 06:22:59;;;;;;;12.27;4.60;;;19.80;99.90;;;19.92;87.58;97666.63;5085815;28;20640;-63
2021/08/05 06:25:29;;;;;;;4.90;4.33;;;19.80;99.90;;;19.92;86.21;97671.91;5066566;28;20632;-64
2021/08/05 06:27:57;;;;;;;9.20;4.80;;;19.80;99.90;;;19.94;89.03;97669.09;5063664;28;20683;-63
2021/08/05 06:30:26;;;;;;;13.30;5.60;;;19.80;99.90;;;20.17;87.26;97673.44;5067535;28;20837;-63
2021/08/05 06:32:54;;;;;;;16.67;6.40;;;20.00;99.90;;;20.39;87.38;97673.47;5066326;28;20284;-63
2021/08/05 06:35:23;;;;;;;8.03;5.03;;;20.20;99.90;;;20.50;86.90;97667.75;5061110;28;21190;-63
2021/08/05 06:37:52;;;;;;;14.23;5.30;;;20.30;99.90;;;20.53;85.20;97675.38;5067328;28;20623;-63
2021/08/05 06:40:21;;;;;;;6.90;4.97;;;20.40;99.90;;;20.83;85.46;97677.16;5070876;28;20646;-63
2021/08/05 06:42:51;;;;;;;7.13;4.47;;;20.60;99.90;;;21.15;83.72;97668.94;5072584;28;20629;-63
2021/08/05 06:45:20;;;;;;;6.80;5.13;;;20.80;99.90;;;21.53;82.76;97674.88;5061118;28;21590;-63
2021/08/05 06:47:50;;;;;;;5.70;4.30;;;21.20;99.90;;;22.06;78.71;97685.22;5057332;28;20670;-63
2021/08/05 06:50:19;;;;;;;28.23;8.33;;;21.60;99.80;;;22.46;78.73;97680.19;5066767;28;20712;-63
2021/08/05 06:52:50;;;;;;;5.83;4.13;;;22.00;99.30;;;22.86;77.51;97677.75;5072164;28;21025;-63
2021/08/05 06:55:19;;;;;;;5.87;4.20;;;22.40;99.00;;;23.19;77.14;97677.84;5069450;28;20662;-63
2021/08/05 06:57:47;;;;;;;7.50;4.70;;;22.70;97.80;;;23.12;76.74;97686.81;5069892;28;20655;-64
2021/08/05 07:00:18;;;;;;;5.50;4.53;;;22.70;96.90;;;22.97;75.45;97669.28;5066214;28;21039;-64
2021/08/05 07:02:47;;;;;;;4.80;4.40;;;22.70;96.20;;;23.14;76.73;97673.31;5063390;28;22621;-63
2021/08/05 07:05:15;;;;;;;4.20;3.80;;;22.80;96.40;;;23.36;73.71;97681.91;5069211;28;20621;-63
2021/08/05 07:07:44;;;;;;;5.43;4.20;;;23.00;95.20;;;23.23;75.30;97671.16;5066827;28;20682;-63
2021/08/05 07:10:14;;;;;;;8.80;6.87;;;23.00;95.10;;;22.99;74.89;97657.44;5071834;28;20625;-63
2021/08/05 07:12:43;;;;;;;7.60;6.50;;;22.80;94.70;;;22.82;75.43;97663.16;5063581;28;20719;-63
2021/08/05 07:15:12;;;;;;;6.90;5.10;;;22.70;94.70;;;22.61;75.44;97660.50;5070833;28;21179;-63
2021/08/05 07:17:44;;;;;;;4.50;4.07;;;22.50;94.50;;;22.45;76.07;97657.28;5069592;28;20728;-63
2021/08/05 07:20:15;;;;;;;8.70;4.67;;;22.30;95.00;;;22.35;76.06;97657.56;5070406;28;20617;-63
2021/08/05 07:22:43;;;;;;;5.40;4.57;;;22.20;95.20;;;22.29;76.48;97654.84;5066800;28;20721;-63
2021/08/05 07:25:14;;;;;;;4.80;4.20;;;22.10;95.30;;;22.21;77.34;97665.59;5064914;28;20662;-64
2021/08/05 07:27:46;;;;;;;5.33;4.03;;;22.10;95.80;;;22.18;78.43;97665.13;5063221;28;20695;-63
2021/08/05 07:30:17;;;;;;;4.70;4.20;;;22.00;96.50;;;22.10;76.29;97663.41;5070107;28;20656;-63
2021/08/05 07:32:49;;;;;;;3.80;3.40;;;22.00;95.20;;;22.01;77.56;97661.84;5066033;28;20719;-63
2021/08/05 07:35:18;;;;;;;3.73;3.20;;;21.90;95.70;;;22.01;77.58;97663.66;5070788;28;21180;-63
2021/08/05 07:37:47;;;;;;;4.70;4.07;;;21.90;96.20;;;21.98;77.02;97664.03;5068203;28;21271;-64
2021/08/05 07:40:17;;;;;;;4.30;3.77;;;21.90;95.40;;;21.98;77.57;97661.38;5068762;28;20651;-63
2021/08/05 07:42:45;;;;;;;4.90;3.80;;;21.80;95.90;;;21.99;77.24;97663.84;5064613;28;21131;-63
2021/08/05 07:45:14;;;;;;;10.57;6.67;;;21.80;95.90;;;22.04;78.34;97661.47;5063592;28;20659;-64
2021/08/05 07:47:43;;;;;;;6.47;5.77;;;21.90;96.50;;;22.05;77.05;97656.97;5066354;28;20660;-63
2021/08/05 07:50:14;;;;;;;5.03;4.53;;;21.90;95.20;;;22.08;76.66;97654.75;5065197;28;22596;-63
2021/08/05 07:52:43;;;;;;;5.23;4.60;;;21.90;95.50;;;22.17;76.73;97655.50;5063157;28;20616;-63
2021/08/05 07:55:13;;;;;;;5.23;4.00;;;22.00;95.60;;;22.27;77.14;97648.91;5062568;28;21053;-63
2021/08/05 07:57:42;;;;;;;5.83;4.63;;;22.00;95.40;;;22.23;74.93;97644.97;5068820;28;20623;-63
2021/08/05 08:00:13;;;;;;;4.90;3.93;;;22.00;93.70;;;22.35;76.03;97646.94;5064378;28;20621;-64
2021/08/05 08:02:43;;;;;;;5.47;4.20;;;22.10;95.10;;;22.53;75.41;97649.19;5063196;28;21273;-63
2021/08/05 08:05:15;;;;;;;4.40;3.87;;;22.20;94.60;;;22.59;73.77;97643.91;5066086;28;21260;-63
2021/08/05 08:07:44;;;;;;;4.63;4.13;;;22.30;93.30;;;22.81;74.97;97643.72;5058872;28;20653;-63
2021/08/05 08:10:15;;;;;;;6.87;4.60;;;22.50;94.20;;;22.96;74.62;97639.19;5062556;28;20693;-63
2021/08/05 08:12:44;;;;;;;10.80;5.23;;;22.60;94.10;;;22.94;74.04;97638.56;5064552;28;20633;-63
2021/08/05 08:15:14;;;;;;;4.33;3.93;;;22.60;93.40;;;22.93;74.58;97641.38;5059051;28;20631;-63
2021/08/05 08:17:43;;;;;;;5.53;4.30;;;22.70;93.60;;;22.92;75.03;97640.53;5063953;28;20736;-63
2021/08/05 08:20:14;;;;;;;5.17;4.17;;;22.70;93.90;;;22.93;74.56;97646.72;5066835;28;21047;-62
2021/08/05 08:22:43;;;;;;;4.73;4.10;;;22.70;93.70;;;22.97;73.36;97642.66;5061413;28;20716;-63
2021/08/05 08:25:13;;;;;;;8.83;4.93;;;22.70;93.00;;;23.00;72.92;97643.09;5061103;28;20638;-62
2021/08/05 08:27:43;;;;;;;5.63;4.77;;;22.70;92.70;;;23.15;74.25;97640.34;5061519;28;20984;-63
2021/08/05 08:30:15;;;;;;;9.03;5.20;;;22.90;93.60;;;23.24;74.33;97637.34;5060680;28;21002;-63
2021/08/05 08:32:47;;;;;;;4.83;4.00;;;23.00;93.60;;;23.26;74.81;97638.81;5062791;28;20671;-63
2021/08/05 08:35:17;;;;;;;5.90;4.43;;;23.00;93.60;;;23.32;73.54;97635.38;5064189;28;20621;-63
2021/08/05 08:37:46;;;;;;;5.20;4.70;;;23.10;93.10;;;23.32;71.84;97638.03;5066310;28;20663;-63
2021/08/05 08:40:17;;;;;;;5.30;4.80;;;23.10;92.20;;;23.24;71.50;97640.84;5067640;28;21637;-63
2021/08/05 08:42:46;;;;;;;10.87;6.07;;;23.00;91.70;;;23.20;72.11;97633.44;5060996;28;20634;-63
2021/08/05 08:45:16;;;;;;;7.07;5.47;;;22.90;91.60;;;23.09;71.12;97635.81;5057481;28;21291;-62
2021/08/05 08:47:52;;;;;;;14.00;7.45;;;22.80;91.10;;;23.04;72.84;97628.41;5056573;28;20842;-63
2021/08/05 08:50:27;;;;;;;6.77;4.80;;;22.90;92.10;;;23.17;74.42;97631.16;5062269;28;20220;-63
2021/08/05 08:53:02;;;;;;;5.37;3.83;;;22.90;93.00;;;23.33;74.15;97630.84;5057963;28;20641;-63
2021/08/05 08:55:32;;;;;;;6.40;4.60;;;23.00;93.30;;;23.45;75.08;97634.63;5065250;28;20634;-63
2021/08/05 08:58:03;;;;;;;8.77;5.13;;;23.20;93.60;;;23.54;72.92;97631.59;5061290;28;20734;-63
2021/08/05 09:00:36;;;;;;;5.10;4.60;;;23.20;92.40;;;23.63;73.08;97627.78;5061777;28;20632;-63
2021/08/05 09:03:07;;;;;;;4.70;4.20;;;23.40;92.50;;;23.74;73.04;97629.94;5067832;28;20758;-63
2021/08/05 09:05:37;;;;;;;4.90;4.40;;;23.50;92.80;;;23.90;71.97;97621.59;5065299;28;20683;-63
2021/08/05 09:08:06;;;;;;;5.57;4.57;;;23.60;92.20;;;23.98;70.75;97618.75;5067552;28;20722;-63
2021/08/05 09:10:35;;;;;;;5.33;4.30;;;23.70;91.20;;;23.92;70.75;97617.72;5066599;28;20658;-63
2021/08/05 09:13:06;;;;;;;7.20;5.20;;;23.60;90.40;;;23.97;70.64;97625.94;5065606;28;20756;-63
2021/08/05 09:15:38;;;;;;;4.93;4.43;;;23.70;90.20;;;23.99;69.98;97625.72;5067017;28;21137;-64
2021/08/05 09:18:31;;;;;;;6.20;4.30;;;23.60;90.10;;;24.05;71.03;97624.94;5066269;28;20757;-63
2021/08/05 09:21:13;;;;;;;4.95;4.45;;;23.70;91.20;;;24.11;69.90;97622.28;5066652;28;20743;-63
2021/08/05 09:23:52;;;;;;;5.47;3.97;;;23.80;90.60;;;24.13;70.29;97622.94;5066734;28;20856;-62
2021/08/05 09:26:41;;;;;;;5.00;4.50;;;23.80;90.70;;;24.10;70.52;97617.16;5066907;28;21082;-64
2021/08/05 09:29:13;;;;;;;4.77;4.27;;;23.80;90.20;;;24.13;71.76;97622.94;5070117;28;20693;-63
2021/08/05 09:31:47;;;;;;;5.57;5.00;;;23.90;90.80;;;24.17;71.19;97619.63;5064830;28;20700;-63
2021/08/05 09:34:19;;;;;;;4.70;4.30;;;23.90;90.80;;;24.19;70.23;97612.28;5064992;28;20728;-62
2021/08/05 09:36:51;;;;;;;4.53;4.00;;;24.00;90.20;;;24.16;70.77;97615.34;5061486;28;20633;-63
2021/08/05 09:39:25;;;;;;;5.10;4.47;;;23.90;89.80;;;24.19;70.40;97616.78;5061419;28;20742;-63
2021/08/05 09:41:58;;;;;;;5.87;4.80;;;24.00;90.00;;;24.24;71.71;97615.16;5067501;28;20690;-64
2021/08/05 09:44:28;;;;;;;5.10;4.30;;;24.00;90.60;;;24.23;72.42;97616.16;5062784;28;20639;-62
2021/08/05 09:47:05;;;;;;;4.80;4.27;;;24.00;91.50;;;24.11;72.13;97618.81;5067522;28;20740;-63
2021/08/05 09:49:35;;;;;;;6.57;5.10;;;23.90;90.80;;;24.05;72.13;97609.75;5063053;28;20717;-63
2021/08/05 09:52:09;;;;;;;4.90;4.40;;;23.80;90.60;;;23.95;71.79;97609.31;5063360;28;20742;-63
2021/08/05 09:54:47;;;;;;;4.63;4.17;;;23.70;90.50;;;23.94;71.46;97613.00;5068059;28;20646;-63
2021/08/05 09:57:24;;;;;;;4.50;3.93;;;23.70;90.50;;;24.02;70.29;97604.00;5065018;28;21000;-63
2021/08/05 09:59:56;;;;;;;4.60;4.10;;;23.80;90.10;;;24.09;70.42;97607.53;5065298;28;20630;-63
2021/08/05 10:02:26;;;;;;;6.07;4.33;;;23.80;89.00;;;24.18;71.24;97607.97;5067612;28;20646;-63
2021/08/05 10:04:56;;;;;;;5.07;4.53;;;23.90;90.50;;;24.18;68.67;97609.81;5061362;28;20734;-62
2021/08/05 10:07:25;;;;;;;5.97;5.40;;;23.90;87.70;;;24.26;70.63;97604.28;5063227;28;20743;-62
2021/08/05 10:09:59;;;;;;;8.57;7.68;;;24.00;90.10;;;24.38;71.06;97605.38;5066276;28;20755;-63
2021/08/05 10:12:31;;;;;;;5.50;5.00;;;24.10;90.40;;;24.50;69.95;97606.44;5070913;28;20664;-62
2021/08/05 10:15:13;;;;;;;6.30;5.47;;;24.10;90.00;;;24.69;72.10;97593.13;5069818;28;20659;-62
2021/08/05 10:17:42;;;;;;;5.43;4.93;;;24.40;91.20;;;24.73;69.88;97597.00;5063380;28;20751;-63
2021/08/05 10:20:14;;;;;;;6.17;5.57;;;24.50;90.00;;;24.68;68.65;97600.28;5062214;28;20207;-62
2021/08/05 10:22:44;;;;;;;5.90;5.10;;;24.40;87.70;;;24.66;67.30;97593.53;5061017;28;20644;-64
2021/08/05 10:25:15;;;;;;;5.87;5.27;;;24.40;85.60;;;24.44;68.29;97586.72;5067918;28;20641;-63
2021/08/05 10:27:44;;;;;;;5.20;4.70;;;24.20;84.80;;;24.72;70.19;97584.72;5059626;28;20726;-62
2021/08/05 10:30:17;;;;;;;6.13;5.20;;;24.40;89.50;;;25.13;68.53;97581.63;5067429;28;20650;-63